createdAt,value
2017-05-11T00:59:56.801Z,94495.81
2017-05-11T01:10:51.331Z,94492.39
2017-05-11T01:13:53.998Z,94484.27
2017-05-11T01:20:09.230Z,94472.78
2017-05-11T01:21:59.449Z,94468.86
2017-05-11T01:32:09.177Z,94463.63
2017-05-11T01:34:23.675Z,94463.92
2017-05-11T01:36:25.060Z,94459.92
2017-05-11T01:38:27.483Z,94462.63
2017-05-11T01:47:11.342Z,94457.23
2017-05-11T01:49:16.021Z,94449.59
2017-05-11T01:55:42.241Z,94450.19
2017-05-11T01:59:20.331Z,94454.81
2017-05-11T02:13:02.368Z,94441.31
2017-05-11T02:24:20.937Z,94439.78
2017-05-11T02:28:37.088Z,94436.5
2017-05-11T02:32:28.331Z,94437.03
2017-05-11T02:34:28.773Z,94432.34
2017-05-11T02:43:58.131Z,94424.76
2017-05-11T02:48:35.327Z,94425
2017-05-11T03:03:14.128Z,94412.66
2017-05-11T03:16:59.630Z,94402.12
2017-05-11T03:35:16.765Z,94407.8
2017-05-11T03:42:48.841Z,94413.27
2017-05-11T03:46:42.623Z,94415.05
2017-05-11T03:55:09.657Z,94410.41
2017-05-11T03:57:20.470Z,94412.21
2017-05-11T04:02:18.538Z,94413.11
2017-05-11T04:05:46.568Z,94410.09
2017-05-11T04:07:32.733Z,94411.09
2017-05-11T04:08:58.386Z,94409.48
2017-05-11T04:10:34.636Z,94409.14
2017-05-11T04:12:41.387Z,94412.64
2017-05-11T04:15:58.953Z,94407.27
2017-05-11T04:20:47.044Z,94399.96
2017-05-11T04:22:24.310Z,94400.92
2017-05-11T04:29:42.500Z,94396.38
2017-05-11T04:33:47.171Z,94398.55
2017-05-11T04:35:53.639Z,94396.1
2017-05-11T04:39:51.000Z,94396.81
2017-05-11T04:41:14.293Z,94393.83
2017-05-11T04:42:38.593Z,94394.7
2017-05-11T04:44:05.962Z,94394.97
2017-05-11T04:45:28.319Z,94397.03
2017-05-11T05:00:16.039Z,94388.64
2017-05-11T05:05:31.278Z,94381.87
2017-05-11T07:50:35.311Z,94274.63
2017-05-11T08:24:45.402Z,94243
2017-05-11T08:33:09.057Z,94236.08
2017-05-11T08:48:59.661Z,94222.81
2017-05-11T08:50:48.543Z,94226.3
2017-05-11T08:56:52.237Z,94222.53
2017-05-11T08:59:59.636Z,94214.18
2017-05-11T09:01:42.960Z,94210.84
2017-05-11T09:03:24.702Z,94213.92
2017-05-11T09:16:53.115Z,94165.76
2017-05-11T09:18:15.099Z,94150.31
2017-05-11T09:19:37.057Z,94144.49
2017-05-11T09:20:59.000Z,94134.58
2017-05-11T09:22:20.983Z,94135.94
2017-05-11T09:23:42.822Z,94133.3
2017-05-11T09:25:05.391Z,94132.09
2017-05-11T09:26:27.308Z,94123.44
2017-05-11T09:27:49.293Z,94115.69
2017-05-11T09:29:11.151Z,94113.89
2017-05-11T09:30:34.015Z,94113
2017-05-11T09:31:55.849Z,94102.78
2017-05-11T09:33:17.747Z,94096.08
2017-05-11T09:34:39.948Z,94092.27
2017-05-11T09:36:01.766Z,94089.56
2017-05-11T09:37:23.568Z,94084.25
2017-05-11T09:38:45.397Z,94077.22
2017-05-11T09:40:07.413Z,94076.52
2017-05-11T09:41:29.272Z,94077.84
2017-05-11T09:42:51.093Z,94072.06
2017-05-11T09:44:14.035Z,94064.45
2017-05-11T09:45:35.902Z,94057.83
2017-05-11T09:46:57.746Z,94062.2
2017-05-11T09:48:19.719Z,94051.27
2017-05-11T09:49:41.679Z,94055.44
2017-05-11T09:51:03.513Z,94058.38
2017-05-11T09:52:25.345Z,94053.91
2017-05-11T09:53:47.177Z,94041.44
2017-05-11T09:55:09.036Z,94036.31
2017-05-11T09:56:30.843Z,94048.5
2017-05-11T09:57:52.709Z,94040.12
2017-05-11T09:59:14.651Z,94045.84
2017-05-11T10:00:36.514Z,94037.34
2017-05-11T10:01:58.330Z,94029.48
2017-05-11T10:03:20.251Z,94031.63
2017-05-11T10:04:43.242Z,94033.03
2017-05-11T10:06:05.075Z,94040.42
2017-05-11T10:07:27.069Z,94043.34
2017-05-11T10:08:49.079Z,94045.33
2017-05-11T10:10:10.873Z,94039.64
2017-05-11T10:11:32.784Z,94044.05
2017-05-11T10:12:54.770Z,94048.69
2017-05-11T10:14:16.611Z,94036.84
2017-05-11T10:15:38.598Z,94040.86
2017-05-11T10:17:00.648Z,94041.52
2017-05-11T10:18:22.589Z,94044.72
2017-05-11T10:19:44.370Z,94048.83
2017-05-11T10:21:06.158Z,94049.73
2017-05-11T10:22:28.020Z,94053.33
2017-05-11T10:23:49.924Z,94054.36
2017-05-11T10:25:11.777Z,94057.47
2017-05-11T10:26:33.614Z,94060.12
2017-05-11T10:28:07.929Z,94054.44
2017-05-11T10:29:29.746Z,94049.36
2017-05-11T10:30:51.529Z,94055.49
2017-05-11T10:32:13.487Z,94053.41
2017-05-11T10:33:35.465Z,94055.11
2017-05-11T10:34:57.408Z,94051.7
2017-05-11T10:36:19.274Z,94051.77
2017-05-11T10:37:41.082Z,94052.88
2017-05-11T10:39:02.928Z,94059.53
2017-05-11T10:40:24.884Z,94057.74
2017-05-11T10:41:47.992Z,94050.67
2017-05-11T10:43:09.920Z,94050.94
2017-05-11T10:44:31.812Z,94051.45
2017-05-11T10:45:53.772Z,94055.81
2017-05-11T10:47:15.608Z,94053.03
2017-05-11T10:48:38.193Z,94050.33
2017-05-11T10:50:00.079Z,94047.99
2017-05-11T10:51:22.254Z,94055.17
2017-05-11T10:52:44.351Z,94056.92
2017-05-11T10:54:06.200Z,94044.7
2017-05-11T10:55:28.062Z,94045.41
2017-05-11T10:56:50.141Z,94040.79
2017-05-11T10:58:11.906Z,94045.83
2017-05-11T10:59:33.770Z,94045.56
2017-05-11T11:00:55.656Z,94044.25
2017-05-11T11:02:17.515Z,94038.27
2017-05-11T11:03:39.351Z,94043.94
2017-05-11T11:05:01.293Z,94040.25
2017-05-11T11:06:23.046Z,94041.48
2017-05-11T11:07:45.013Z,94038.97
2017-05-11T11:09:07.260Z,94035.52
2017-05-11T11:10:29.195Z,94040.11
2017-05-11T11:11:51.013Z,94040.33
2017-05-11T11:13:12.888Z,94038.9
2017-05-11T11:14:34.769Z,94038.92
2017-05-11T11:15:56.713Z,94036.81
2017-05-11T11:17:18.654Z,94039.63
2017-05-11T11:18:40.517Z,94035.69
2017-05-11T11:20:02.341Z,94024.98
2017-05-11T11:21:24.147Z,94025.89
2017-05-11T11:22:46.044Z,94025.39
2017-05-11T11:24:07.984Z,94021.97
2017-05-11T11:25:29.939Z,94028.75
2017-05-11T11:26:51.844Z,94022.87
2017-05-11T11:28:13.690Z,94020.3
2017-05-11T11:29:42.106Z,94020.29
2017-05-11T11:31:04.694Z,94018.53
2017-05-11T11:32:26.743Z,94012.03
2017-05-11T11:33:48.653Z,94009.71
2017-05-11T11:35:10.606Z,94003.31
2017-05-11T11:36:32.453Z,94007.02
2017-05-11T11:37:54.270Z,93998.73
2017-05-11T11:39:16.607Z,93993.34
2017-05-11T11:40:38.878Z,94001.23
2017-05-11T11:42:00.738Z,94000.59
2017-05-11T11:43:23.631Z,93995.7
2017-05-11T11:44:45.494Z,93991.53
2017-05-11T11:46:07.349Z,93983.4
2017-05-11T11:47:30.257Z,93989.77
2017-05-11T11:48:52.135Z,93987.3
2017-05-11T11:50:20.019Z,93986.87
2017-05-11T11:51:41.906Z,93987.11
2017-05-11T11:53:03.723Z,93983.37
2017-05-11T11:54:25.586Z,93990.41
2017-05-11T11:55:47.447Z,93990.44
2017-05-11T11:57:09.361Z,93988.44
2017-05-11T11:58:31.229Z,93983.71
2017-05-11T11:59:53.069Z,93980.94
2017-05-11T12:01:15.097Z,93987.97
2017-05-11T12:02:39.973Z,93987.34
2017-05-11T12:04:01.863Z,93987.5
2017-05-11T12:05:23.738Z,93984.15
2017-05-11T12:06:46.050Z,93984.47
2017-05-11T12:08:25.905Z,93985.45
2017-05-11T12:09:47.981Z,93981.15
2017-05-11T12:11:14.728Z,93983.3
2017-05-11T12:12:39.574Z,93980.61
2017-05-11T12:14:01.440Z,93988.26
2017-05-11T12:15:23.304Z,93976.56
2017-05-11T12:16:45.191Z,93976.38
2017-05-11T12:18:07.007Z,93977.75
2017-05-11T12:19:28.867Z,93975.92
2017-05-11T12:20:50.697Z,93981.33
2017-05-11T12:22:12.528Z,93971.8
2017-05-11T12:23:37.069Z,93973.16
2017-05-11T12:24:59.067Z,93976.16
2017-05-11T12:26:20.996Z,93970.83
2017-05-11T12:27:42.963Z,93964.53
2017-05-11T12:29:04.852Z,93954.52
2017-05-11T12:30:26.818Z,93942.95
2017-05-11T12:31:53.251Z,93950.96
2017-05-11T12:33:16.946Z,93944.48
2017-05-11T12:34:38.889Z,93945.95
2017-05-11T12:36:00.838Z,93948.12
2017-05-11T12:37:22.794Z,93950.15
2017-05-11T12:38:44.666Z,93946.23
2017-05-11T12:40:06.521Z,93942.35
2017-05-11T12:41:28.395Z,93938.45
2017-05-11T12:42:50.348Z,93932.22
2017-05-11T12:44:12.180Z,93926.28
2017-05-11T12:45:34.196Z,93927.55
2017-05-11T12:46:56.158Z,93927.37
2017-05-11T12:48:18.064Z,93925.55
2017-05-11T12:49:40.061Z,93922.78
2017-05-11T12:51:01.894Z,93922.7
2017-05-11T12:52:32.746Z,93923.14
2017-05-11T12:53:58.892Z,93920.5
2017-05-11T12:55:20.768Z,93917.06
2017-05-11T12:56:42.631Z,93915.98
2017-05-11T12:58:04.816Z,93917.12
2017-05-11T12:59:26.702Z,93914.95
2017-05-11T13:00:48.650Z,93914.1
2017-05-11T13:02:10.524Z,93918.14
2017-05-11T13:03:32.403Z,93918.67
2017-05-11T13:04:54.243Z,93917.69
2017-05-11T13:06:16.233Z,93915.03
2017-05-11T13:07:38.081Z,93920.05
2017-05-11T13:09:07.007Z,93922.62
2017-05-11T13:10:28.910Z,93918.73
2017-05-11T13:11:50.848Z,93919.59
2017-05-11T13:13:18.040Z,93927.52
2017-05-11T13:14:40.005Z,93928.5
2017-05-11T13:16:02.289Z,93928.13
2017-05-11T13:17:24.244Z,93903.36
2017-05-11T13:18:46.220Z,93904.73
2017-05-11T13:20:08.306Z,93900.71
2017-05-11T13:21:30.146Z,93909.16
2017-05-11T13:22:52.859Z,93907.61
2017-05-11T13:24:15.333Z,93902.72
2017-05-11T13:25:37.511Z,93899.67
2017-05-11T13:26:59.804Z,93894.46
2017-05-11T13:28:21.642Z,93895.14
2017-05-11T13:29:50.470Z,93893.8
2017-05-11T13:31:12.410Z,93894.8
2017-05-11T13:32:34.242Z,93892.33
2017-05-11T13:33:56.177Z,93888.81
2017-05-11T13:35:31.339Z,93894.26
2017-05-11T13:36:53.211Z,93889.3
2017-05-11T13:38:15.072Z,93882.77
2017-05-11T13:39:36.997Z,93899.61
2017-05-11T13:40:58.947Z,93888.78
2017-05-11T13:42:20.922Z,93885.52
2017-05-11T13:43:42.847Z,93883.17
2017-05-11T13:45:04.824Z,93881.13
2017-05-11T13:46:26.699Z,93880.66
2017-05-11T13:47:48.588Z,93883.09
2017-05-11T13:49:10.531Z,93884.49
2017-05-11T13:50:32.526Z,93880.66
2017-05-11T13:51:54.416Z,93876.07
2017-05-11T13:53:16.292Z,93869.11
2017-05-11T13:54:38.167Z,93869.34
2017-05-11T13:56:11.602Z,93868.39
2017-05-11T13:57:33.489Z,93864.17
2017-05-11T13:58:55.350Z,93863.14
2017-05-11T14:00:17.192Z,93862.52
2017-05-11T14:01:39.065Z,93862.55
2017-05-11T14:03:00.957Z,93862.12
2017-05-11T14:04:25.129Z,93854.89
2017-05-11T14:05:52.778Z,93851.74
2017-05-11T14:07:15.089Z,93854.27
2017-05-11T14:08:37.024Z,93848.3
2017-05-11T14:10:00.980Z,93848.13
2017-05-11T14:11:22.896Z,93847.82
2017-05-11T14:12:45.777Z,93850.96
2017-05-11T14:14:07.772Z,93840.66
2017-05-11T14:15:30.357Z,93840.09
2017-05-11T14:17:06.437Z,93840.5
2017-05-11T14:18:28.553Z,93833.16
2017-05-11T14:19:50.564Z,93831.26
2017-05-11T14:21:13.070Z,93830.09
2017-05-11T14:22:34.930Z,93823.84
2017-05-11T14:23:56.881Z,93821.13
2017-05-11T14:25:18.860Z,93816.11
2017-05-11T14:26:40.840Z,93818.25
2017-05-11T14:28:02.830Z,93822.89
2017-05-11T14:29:24.765Z,93816.06
2017-05-11T14:30:46.679Z,93813
2017-05-11T14:32:08.586Z,93812.86
2017-05-11T14:33:30.467Z,93814.23
2017-05-11T14:34:52.503Z,93815.16
2017-05-11T14:36:23.169Z,93811.8
2017-05-11T14:37:45.191Z,93805.23
2017-05-11T14:39:07.231Z,93807.8
2017-05-11T14:40:29.116Z,93803.54
2017-05-11T14:41:51.036Z,93810.78
2017-05-11T14:43:18.114Z,93812.59
2017-05-11T14:44:40.090Z,93812.2
2017-05-11T14:46:01.933Z,93806.33
2017-05-11T14:47:23.718Z,93806.17
2017-05-11T14:48:45.636Z,93800.42
2017-05-11T14:50:07.538Z,93800.48
2017-05-11T14:51:29.504Z,93797.55
2017-05-11T14:52:51.450Z,93807.39
2017-05-11T14:54:13.326Z,93801.45
2017-05-11T14:55:35.262Z,93804.74
2017-05-11T14:56:59.132Z,93792.71
2017-05-11T14:58:32.870Z,93793.81
2017-05-11T14:59:54.910Z,93801.91
2017-05-11T15:01:16.864Z,93799.13
2017-05-11T15:02:38.843Z,93800
2017-05-11T15:04:00.842Z,93801.86
2017-05-11T15:05:22.718Z,93806.81
2017-05-11T15:06:44.562Z,93808.77
2017-05-11T15:08:06.399Z,93811.73
2017-05-11T15:09:28.273Z,93812.73
2017-05-11T15:10:51.807Z,93812.47
2017-05-11T15:12:13.738Z,93808.95
2017-05-11T15:13:36.641Z,93813.87
2017-05-11T15:14:58.520Z,93812.05
2017-05-11T15:16:20.571Z,93812.94
2017-05-11T15:17:42.571Z,93815.74
2017-05-11T15:19:04.504Z,93815.41
2017-05-11T15:20:26.380Z,93814.73
2017-05-11T15:21:48.365Z,93810.15
2017-05-11T15:23:10.378Z,93806.53
2017-05-11T15:24:32.288Z,93809.4
2017-05-11T15:25:54.269Z,93809.58
2017-05-11T15:27:16.223Z,93806.78
2017-05-11T15:28:38.108Z,93812.59
2017-05-11T15:30:00.024Z,93833.77
2017-05-11T15:31:21.850Z,93834.95
2017-05-11T15:32:43.806Z,93838.05
2017-05-11T15:34:05.686Z,93842.91
2017-05-11T15:35:27.606Z,93829.59
2017-05-11T15:36:49.495Z,93838.72
2017-05-11T15:38:11.593Z,93837.31
2017-05-11T15:39:37.594Z,93821.64
2017-05-11T15:40:59.707Z,93820.89
2017-05-11T15:42:22.701Z,93824.23
2017-05-11T15:43:44.896Z,93818.84
2017-05-11T15:45:07.648Z,93819.05
2017-05-11T15:46:31.171Z,93816.83
2017-05-11T15:47:57.039Z,93813.88
2017-05-11T15:49:22.251Z,93811.58
2017-05-11T15:50:51.804Z,93806.97
2017-05-11T15:52:15.875Z,93813.38
2017-05-11T15:53:41.177Z,93818.97
2017-05-11T15:55:07.674Z,93820.97
2017-05-11T15:56:33.841Z,93824.3
2017-05-11T15:58:00.322Z,93821.77
2017-05-11T15:59:26.214Z,93828.02
2017-05-11T16:01:07.049Z,93837.42
2017-05-11T16:06:02.717Z,93837.77
2017-05-11T16:52:36.298Z,93814.35
2017-05-11T17:24:52.695Z,93824.48
2017-05-11T18:26:48.924Z,93818.36
2017-05-11T18:46:45.287Z,93824.71
2017-05-11T19:44:29.303Z,93878.77
2017-05-11T20:36:20.068Z,93927.69
2017-05-11T20:39:57.835Z,93928.77
2017-05-11T20:43:35.689Z,93927.78
2017-05-11T20:47:37.721Z,93927.45
2017-05-11T20:49:04.703Z,93926.57
2017-05-11T20:50:41.921Z,93933.75
2017-05-11T20:52:34.589Z,93929.95
2017-05-11T20:54:14.270Z,93929.66
2017-05-11T20:55:43.701Z,93929.65
2017-05-11T20:57:15.787Z,93924.91
2017-05-11T21:57:18.613Z,93980.72
